sensor_id;sensor_type;location;lat;lon;timestamp;P1;durP1;ratioP1;P2;durP2;ratioP2
36797;SDS011;22748;8.426;99.512;2024-01-11T00:00:26;124.57;;;73.13;;
36797;SDS011;22748;8.426;99.512;2024-01-11T00:02:56;82.88;;;55.60;;
36797;SDS011;22748;8.426;99.512;2024-01-11T00:05:26;57.53;;;38.50;;
36797;SDS011;22748;8.426;99.512;2024-01-11T00:07:56;56.05;;;38.03;;
36797;SDS011;22748;8.426;99.512;2024-01-11T00:10:32;48.60;;;32.88;;
36797;SDS011;22748;8.426;99.512;2024-01-11T00:13:01;37.50;;;25.92;;
36797;SDS011;22748;8.426;99.512;2024-01-11T00:15:32;35.97;;;26.57;;
36797;SDS011;22748;8.426;99.512;2024-01-11T00:18:01;36.85;;;27.33;;
36797;SDS011;22748;8.426;99.512;2024-01-11T00:20:32;27.90;;;23.17;;
36797;SDS011;22748;8.426;99.512;2024-01-11T00:23:02;36.75;;;25.67;;
36797;SDS011;22748;8.426;99.512;2024-01-11T00:25:34;38.70;;;25.08;;
36797;SDS011;22748;8.426;99.512;2024-01-11T00:28:05;46.22;;;32.10;;
36797;SDS011;22748;8.426;99.512;2024-01-11T00:30:34;61.47;;;39.92;;
36797;SDS011;22748;8.426;99.512;2024-01-11T00:33:04;64.72;;;43.10;;
36797;SDS011;22748;8.426;99.512;2024-01-11T00:38:04;47.60;;;30.45;;
36797;SDS011;22748;8.426;99.512;2024-01-11T00:40:39;42.45;;;32.08;;
36797;SDS011;22748;8.426;99.512;2024-01-11T00:43:08;37.33;;;28.80;;
36797;SDS011;22748;8.426;99.512;2024-01-11T00:45:38;43.22;;;27.88;;
36797;SDS011;22748;8.426;99.512;2024-01-11T00:48:09;38.17;;;25.23;;
36797;SDS011;22748;8.426;99.512;2024-01-11T00:50:39;39.30;;;24.00;;
36797;SDS011;22748;8.426;99.512;2024-01-11T00:53:09;27.48;;;21.80;;
36797;SDS011;22748;8.426;99.512;2024-01-11T00:58:18;26.77;;;20.65;;
36797;SDS011;22748;8.426;99.512;2024-01-11T01:00:48;32.65;;;26.08;;
36797;SDS011;22748;8.426;99.512;2024-01-11T01:03:18;32.08;;;24.23;;
36797;SDS011;22748;8.426;99.512;2024-01-11T01:05:48;32.45;;;24.65;;
36797;SDS011;22748;8.426;99.512;2024-01-11T01:08:18;32.22;;;24.00;;
36797;SDS011;22748;8.426;99.512;2024-01-11T01:10:50;29.52;;;24.60;;
36797;SDS011;22748;8.426;99.512;2024-01-11T01:13:20;37.47;;;26.83;;
36797;SDS011;22748;8.426;99.512;2024-01-11T01:15:49;38.40;;;25.92;;
36797;SDS011;22748;8.426;99.512;2024-01-11T01:18:19;30.45;;;25.92;;
36797;SDS011;22748;8.426;99.512;2024-01-11T01:20:55;32.05;;;25.52;;
36797;SDS011;22748;8.426;99.512;2024-01-11T01:23:25;41.03;;;30.30;;
36797;SDS011;22748;8.426;99.512;2024-01-11T01:25:57;40.33;;;29.90;;
36797;SDS011;22748;8.426;99.512;2024-01-11T01:28:27;41.72;;;30.92;;
36797;SDS011;22748;8.426;99.512;2024-01-11T01:30:57;44.05;;;33.35;;
36797;SDS011;22748;8.426;99.512;2024-01-11T01:33:27;46.70;;;33.40;;
36797;SDS011;22748;8.426;99.512;2024-01-11T01:35:57;50.38;;;34.53;;
36797;SDS011;22748;8.426;99.512;2024-01-11T01:38:27;40.47;;;30.00;;
36797;SDS011;22748;8.426;99.512;2024-01-11T01:41:03;46.85;;;32.67;;
36797;SDS011;22748;8.426;99.512;2024-01-11T01:43:34;41.90;;;31.30;;
36797;SDS011;22748;8.426;99.512;2024-01-11T01:46:03;36.25;;;24.83;;
36797;SDS011;22748;8.426;99.512;2024-01-11T01:48:35;34.35;;;26.27;;
36797;SDS011;22748;8.426;99.512;2024-01-11T01:51:05;33.63;;;25.67;;
36797;SDS011;22748;8.426;99.512;2024-01-11T01:53:36;36.65;;;26.88;;
36797;SDS011;22748;8.426;99.512;2024-01-11T01:56:07;30.85;;;22.60;;
36797;SDS011;22748;8.426;99.512;2024-01-11T01:58:39;30.75;;;21.33;;
36797;SDS011;22748;8.426;99.512;2024-01-11T02:01:11;38.63;;;24.33;;
36797;SDS011;22748;8.426;99.512;2024-01-11T02:03:41;38.55;;;24.02;;
36797;SDS011;22748;8.426;99.512;2024-01-11T02:06:14;35.17;;;24.98;;
36797;SDS011;22748;8.426;99.512;2024-01-11T02:08:44;36.60;;;24.93;;
36797;SDS011;22748;8.426;99.512;2024-01-11T02:11:22;37.35;;;25.10;;
36797;SDS011;22748;8.426;99.512;2024-01-11T02:13:53;43.88;;;28.33;;
36797;SDS011;22748;8.426;99.512;2024-01-11T02:16:23;45.25;;;27.25;;
36797;SDS011;22748;8.426;99.512;2024-01-11T02:18:53;42.35;;;27.05;;
36797;SDS011;22748;8.426;99.512;2024-01-11T02:21:23;39.13;;;26.17;;
36797;SDS011;22748;8.426;99.512;2024-01-11T02:24:04;46.30;;;31.83;;
36797;SDS011;22748;8.426;99.512;2024-01-11T02:26:35;45.47;;;26.00;;
36797;SDS011;22748;8.426;99.512;2024-01-11T02:29:05;40.67;;;27.75;;
36797;SDS011;22748;8.426;99.512;2024-01-11T02:31:34;40.10;;;26.27;;
36797;SDS011;22748;8.426;99.512;2024-01-11T02:34:04;37.90;;;24.40;;
36797;SDS011;22748;8.426;99.512;2024-01-11T02:36:35;26.27;;;16.70;;
36797;SDS011;22748;8.426;99.512;2024-01-11T02:39:10;33.33;;;20.58;;
36797;SDS011;22748;8.426;99.512;2024-01-11T02:41:42;28.80;;;19.45;;
36797;SDS011;22748;8.426;99.512;2024-01-11T02:44:12;31.40;;;20.65;;
36797;SDS011;22748;8.426;99.512;2024-01-11T02:46:42;26.67;;;18.08;;
36797;SDS011;22748;8.426;99.512;2024-01-11T02:49:15;23.45;;;16.85;;
36797;SDS011;22748;8.426;99.512;2024-01-11T02:51:45;26.35;;;17.30;;
36797;SDS011;22748;8.426;99.512;2024-01-11T02:54:21;27.42;;;15.95;;
36797;SDS011;22748;8.426;99.512;2024-01-11T02:56:50;23.92;;;15.68;;
36797;SDS011;22748;8.426;99.512;2024-01-11T02:59:20;23.00;;;17.90;;
36797;SDS011;22748;8.426;99.512;2024-01-11T03:01:51;25.95;;;16.45;;
36797;SDS011;22748;8.426;99.512;2024-01-11T03:04:21;25.38;;;17.10;;
36797;SDS011;22748;8.426;99.512;2024-01-11T03:06:53;20.45;;;14.68;;
36797;SDS011;22748;8.426;99.512;2024-01-11T03:09:29;20.42;;;14.68;;
36797;SDS011;22748;8.426;99.512;2024-01-11T03:12:00;18.23;;;12.77;;
36797;SDS011;22748;8.426;99.512;2024-01-11T03:14:29;19.95;;;12.82;;
36797;SDS011;22748;8.426;99.512;2024-01-11T03:16:59;17.75;;;13.20;;
36797;SDS011;22748;8.426;99.512;2024-01-11T03:19:29;18.07;;;12.60;;
36797;SDS011;22748;8.426;99.512;2024-01-11T03:21:59;17.50;;;13.00;;
36797;SDS011;22748;8.426;99.512;2024-01-11T03:24:38;17.77;;;12.45;;
36797;SDS011;22748;8.426;99.512;2024-01-11T03:27:08;30.67;;;13.48;;
36797;SDS011;22748;8.426;99.512;2024-01-11T03:29:37;17.45;;;13.25;;
36797;SDS011;22748;8.426;99.512;2024-01-11T03:32:07;19.38;;;13.57;;
36797;SDS011;22748;8.426;99.512;2024-01-11T03:34:40;16.42;;;12.32;;
36797;SDS011;22748;8.426;99.512;2024-01-11T03:37:09;18.98;;;13.10;;
36797;SDS011;22748;8.426;99.512;2024-01-11T03:39:45;15.60;;;11.88;;
36797;SDS011;22748;8.426;99.512;2024-01-11T03:42:17;15.38;;;12.43;;
36797;SDS011;22748;8.426;99.512;2024-01-11T03:44:47;17.08;;;12.18;;
36797;SDS011;22748;8.426;99.512;2024-01-11T03:47:17;20.40;;;12.57;;
36797;SDS011;22748;8.426;99.512;2024-01-11T03:49:47;21.58;;;13.63;;
36797;SDS011;22748;8.426;99.512;2024-01-11T03:52:16;19.75;;;12.60;;
36797;SDS011;22748;8.426;99.512;2024-01-11T03:54:52;19.60;;;12.02;;
36797;SDS011;22748;8.426;99.512;2024-01-11T03:57:22;22.17;;;13.52;;
36797;SDS011;22748;8.426;99.512;2024-01-11T03:59:52;17.20;;;12.75;;
36797;SDS011;22748;8.426;99.512;2024-01-11T04:02:21;20.17;;;13.52;;
36797;SDS011;22748;8.426;99.512;2024-01-11T04:04:52;19.38;;;13.45;;
36797;SDS011;22748;8.426;99.512;2024-01-11T04:07:22;18.13;;;12.03;;
36797;SDS011;22748;8.426;99.512;2024-01-11T04:10:00;16.40;;;12.32;;
36797;SDS011;22748;8.426;99.512;2024-01-11T04:12:32;17.58;;;12.90;;
36797;SDS011;22748;8.426;99.512;2024-01-11T04:15:04;14.80;;;12.48;;
36797;SDS011;22748;8.426;99.512;2024-01-11T04:17:34;15.75;;;11.82;;
36797;SDS011;22748;8.426;99.512;2024-01-11T04:20:04;17.33;;;12.27;;
36797;SDS011;22748;8.426;99.512;2024-01-11T04:22:35;22.65;;;13.50;;
36797;SDS011;22748;8.426;99.512;2024-01-11T04:25:11;15.48;;;12.65;;
36797;SDS011;22748;8.426;99.512;2024-01-11T04:27:41;23.05;;;12.70;;
36797;SDS011;22748;8.426;99.512;2024-01-11T04:30:11;17.05;;;13.30;;
36797;SDS011;22748;8.426;99.512;2024-01-11T04:32:41;19.85;;;13.95;;
36797;SDS011;22748;8.426;99.512;2024-01-11T04:35:11;17.40;;;12.05;;
36797;SDS011;22748;8.426;99.512;2024-01-11T04:37:41;19.02;;;12.05;;
36797;SDS011;22748;8.426;99.512;2024-01-11T04:40:12;19.10;;;13.60;;
36797;SDS011;22748;8.426;99.512;2024-01-11T04:42:46;16.27;;;13.70;;
36797;SDS011;22748;8.426;99.512;2024-01-11T04:45:15;19.35;;;12.90;;
36797;SDS011;22748;8.426;99.512;2024-01-11T04:47:45;16.98;;;12.40;;
36797;SDS011;22748;8.426;99.512;2024-01-11T04:50:15;16.73;;;12.75;;
36797;SDS011;22748;8.426;99.512;2024-01-11T04:52:45;14.55;;;11.82;;
36797;SDS011;22748;8.426;99.512;2024-01-11T04:55:20;13.23;;;10.38;;
36797;SDS011;22748;8.426;99.512;2024-01-11T04:57:50;16.35;;;10.95;;
36797;SDS011;22748;8.426;99.512;2024-01-11T05:00:19;13.32;;;11.20;;
36797;SDS011;22748;8.426;99.512;2024-01-11T05:02:49;14.10;;;10.57;;
36797;SDS011;22748;8.426;99.512;2024-01-11T05:05:19;26.85;;;11.98;;
36797;SDS011;22748;8.426;99.512;2024-01-11T05:07:49;19.45;;;10.70;;
36797;SDS011;22748;8.426;99.512;2024-01-11T05:10:25;16.93;;;11.27;;
36797;SDS011;22748;8.426;99.512;2024-01-11T05:12:55;17.00;;;11.10;;
36797;SDS011;22748;8.426;99.512;2024-01-11T05:15:25;13.68;;;10.50;;
36797;SDS011;22748;8.426;99.512;2024-01-11T05:17:55;16.60;;;10.85;;
36797;SDS011;22748;8.426;99.512;2024-01-11T05:20:25;14.00;;;9.83;;
36797;SDS011;22748;8.426;99.512;2024-01-11T05:22:55;13.85;;;10.32;;
36797;SDS011;22748;8.426;99.512;2024-01-11T05:27:59;13.15;;;9.85;;
36797;SDS011;22748;8.426;99.512;2024-01-11T05:30:29;13.98;;;10.43;;
36797;SDS011;22748;8.426;99.512;2024-01-11T05:32:59;12.73;;;9.48;;
36797;SDS011;22748;8.426;99.512;2024-01-11T05:35:30;10.90;;;9.65;;
36797;SDS011;22748;8.426;99.512;2024-01-11T05:38:00;13.00;;;10.05;;
36797;SDS011;22748;8.426;99.512;2024-01-11T05:40:35;11.65;;;8.98;;
36797;SDS011;22748;8.426;99.512;2024-01-11T05:43:05;10.98;;;9.55;;
36797;SDS011;22748;8.426;99.512;2024-01-11T05:45:39;12.20;;;9.93;;
36797;SDS011;22748;8.426;99.512;2024-01-11T05:48:12;15.25;;;9.75;;
36797;SDS011;22748;8.426;99.512;2024-01-11T05:50:41;12.45;;;10.30;;
36797;SDS011;22748;8.426;99.512;2024-01-11T05:53:12;12.90;;;8.95;;
36797;SDS011;22748;8.426;99.512;2024-01-11T05:55:44;13.00;;;9.35;;
36797;SDS011;22748;8.426;99.512;2024-01-11T05:58:14;25.10;;;10.50;;
36797;SDS011;22748;8.426;99.512;2024-01-11T06:00:44;10.88;;;8.90;;
36797;SDS011;22748;8.426;99.512;2024-01-11T06:03:14;13.02;;;8.82;;
36797;SDS011;22748;8.426;99.512;2024-01-11T06:05:44;11.60;;;9.40;;
36797;SDS011;22748;8.426;99.512;2024-01-11T06:08:14;14.27;;;9.70;;
36797;SDS011;22748;8.426;99.512;2024-01-11T06:10:49;13.15;;;9.30;;
36797;SDS011;22748;8.426;99.512;2024-01-11T06:13:19;12.43;;;9.13;;
36797;SDS011;22748;8.426;99.512;2024-01-11T06:15:48;17.70;;;10.13;;
36797;SDS011;22748;8.426;99.512;2024-01-11T06:18:18;10.18;;;7.75;;
36797;SDS011;22748;8.426;99.512;2024-01-11T06:20:47;12.55;;;8.98;;
36797;SDS011;22748;8.426;99.512;2024-01-11T06:23:17;9.00;;;8.10;;
36797;SDS011;22748;8.426;99.512;2024-01-11T06:25:53;10.65;;;8.35;;
36797;SDS011;22748;8.426;99.512;2024-01-11T06:28:23;9.75;;;8.18;;
36797;SDS011;22748;8.426;99.512;2024-01-11T06:30:52;12.88;;;8.35;;
36797;SDS011;22748;8.426;99.512;2024-01-11T06:33:25;10.13;;;8.55;;
36797;SDS011;22748;8.426;99.512;2024-01-11T06:35:55;12.57;;;9.73;;
36797;SDS011;22748;8.426;99.512;2024-01-11T06:38:25;18.43;;;8.73;;
36797;SDS011;22748;8.426;99.512;2024-01-11T06:41:01;13.10;;;9.32;;
36797;SDS011;22748;8.426;99.512;2024-01-11T06:43:31;12.43;;;9.02;;
36797;SDS011;22748;8.426;99.512;2024-01-11T06:46:02;23.25;;;19.33;;
36797;SDS011;22748;8.426;99.512;2024-01-11T06:48:33;15.40;;;11.73;;
36797;SDS011;22748;8.426;99.512;2024-01-11T06:51:03;13.73;;;10.20;;
36797;SDS011;22748;8.426;99.512;2024-01-11T06:53:33;15.10;;;9.48;;
36797;SDS011;22748;8.426;99.512;2024-01-11T06:56:15;11.23;;;9.90;;
36797;SDS011;22748;8.426;99.512;2024-01-11T06:58:45;12.38;;;9.93;;
36797;SDS011;22748;8.426;99.512;2024-01-11T07:01:45;14.30;;;8.88;;
36797;SDS011;22748;8.426;99.512;2024-01-11T07:04:15;13.23;;;8.27;;
36797;SDS011;22748;8.426;99.512;2024-01-11T07:06:45;10.20;;;9.13;;
36797;SDS011;22748;8.426;99.512;2024-01-11T07:09:14;10.50;;;9.20;;
36797;SDS011;22748;8.426;99.512;2024-01-11T07:11:50;12.53;;;8.70;;
36797;SDS011;22748;8.426;99.512;2024-01-11T07:14:20;9.52;;;7.93;;
36797;SDS011;22748;8.426;99.512;2024-01-11T07:16:49;11.88;;;8.68;;
36797;SDS011;22748;8.426;99.512;2024-01-11T07:19:19;11.32;;;8.85;;
36797;SDS011;22748;8.426;99.512;2024-01-11T07:21:49;10.30;;;8.52;;
36797;SDS011;22748;8.426;99.512;2024-01-11T07:24:19;10.60;;;9.00;;
36797;SDS011;22748;8.426;99.512;2024-01-11T07:26:55;12.33;;;8.60;;
36797;SDS011;22748;8.426;99.512;2024-01-11T07:29:24;10.68;;;8.80;;
36797;SDS011;22748;8.426;99.512;2024-01-11T07:31:54;14.65;;;8.77;;
36797;SDS011;22748;8.426;99.512;2024-01-11T07:34:24;12.20;;;8.40;;
36797;SDS011;22748;8.426;99.512;2024-01-11T07:36:54;12.07;;;8.23;;
36797;SDS011;22748;8.426;99.512;2024-01-11T07:39:24;13.80;;;8.63;;
36797;SDS011;22748;8.426;99.512;2024-01-11T07:42:03;49.78;;;39.80;;
36797;SDS011;22748;8.426;99.512;2024-01-11T07:44:33;45.97;;;38.70;;
36797;SDS011;22748;8.426;99.512;2024-01-11T07:47:04;31.88;;;27.45;;
36797;SDS011;22748;8.426;99.512;2024-01-11T07:49:34;23.63;;;18.98;;
36797;SDS011;22748;8.426;99.512;2024-01-11T07:52:05;20.55;;;15.68;;
36797;SDS011;22748;8.426;99.512;2024-01-11T07:54:35;19.92;;;15.40;;
36797;SDS011;22748;8.426;99.512;2024-01-11T07:57:08;18.83;;;14.63;;
36797;SDS011;22748;8.426;99.512;2024-01-11T07:59:38;13.80;;;11.13;;
36797;SDS011;22748;8.426;99.512;2024-01-11T08:02:08;10.02;;;8.60;;
36797;SDS011;22748;8.426;99.512;2024-01-11T08:04:39;13.35;;;9.25;;
36797;SDS011;22748;8.426;99.512;2024-01-11T08:07:12;10.52;;;8.52;;
36797;SDS011;22748;8.426;99.512;2024-01-11T08:09:42;11.73;;;8.90;;
36797;SDS011;22748;8.426;99.512;2024-01-11T08:12:18;13.38;;;8.68;;
36797;SDS011;22748;8.426;99.512;2024-01-11T08:14:48;11.55;;;8.52;;
36797;SDS011;22748;8.426;99.512;2024-01-11T08:17:18;12.45;;;7.60;;
36797;SDS011;22748;8.426;99.512;2024-01-11T08:22:17;12.10;;;9.05;;
36797;SDS011;22748;8.426;99.512;2024-01-11T08:24:47;12.55;;;9.23;;
36797;SDS011;22748;8.426;99.512;2024-01-11T08:27:23;16.98;;;9.30;;
36797;SDS011;22748;8.426;99.512;2024-01-11T08:29:53;12.98;;;9.73;;
36797;SDS011;22748;8.426;99.512;2024-01-11T08:32:22;11.65;;;9.50;;
36797;SDS011;22748;8.426;99.512;2024-01-11T08:34:52;11.52;;;10.07;;
36797;SDS011;22748;8.426;99.512;2024-01-11T08:37:22;17.77;;;11.13;;
36797;SDS011;22748;8.426;99.512;2024-01-11T08:39:51;13.73;;;11.45;;
36797;SDS011;22748;8.426;99.512;2024-01-11T08:42:27;15.70;;;12.50;;
36797;SDS011;22748;8.426;99.512;2024-01-11T08:44:57;15.90;;;11.88;;
36797;SDS011;22748;8.426;99.512;2024-01-11T08:47:32;18.27;;;11.10;;
36797;SDS011;22748;8.426;99.512;2024-01-11T08:50:04;19.13;;;12.18;;
36797;SDS011;22748;8.426;99.512;2024-01-11T08:52:36;13.68;;;10.20;;
36797;SDS011;22748;8.426;99.512;2024-01-11T08:55:07;14.23;;;10.57;;
36797;SDS011;22748;8.426;99.512;2024-01-11T08:57:44;17.05;;;11.75;;
36797;SDS011;22748;8.426;99.512;2024-01-11T09:00:14;17.52;;;10.30;;
36797;SDS011;22748;8.426;99.512;2024-01-11T09:02:44;14.57;;;10.70;;
36797;SDS011;22748;8.426;99.512;2024-01-11T09:05:15;12.40;;;10.07;;
36797;SDS011;22748;8.426;99.512;2024-01-11T09:07:45;14.48;;;10.77;;
36797;SDS011;22748;8.426;99.512;2024-01-11T09:10:15;14.43;;;10.32;;
36797;SDS011;22748;8.426;99.512;2024-01-11T09:12:47;14.05;;;10.50;;
36797;SDS011;22748;8.426;99.512;2024-01-11T09:15:16;14.00;;;10.13;;
36797;SDS011;22748;8.426;99.512;2024-01-11T09:17:46;11.70;;;9.40;;
36797;SDS011;22748;8.426;99.512;2024-01-11T09:20:17;15.40;;;12.13;;
36797;SDS011;22748;8.426;99.512;2024-01-11T09:22:46;18.75;;;12.23;;
36797;SDS011;22748;8.426;99.512;2024-01-11T09:25:17;16.40;;;11.90;;
36797;SDS011;22748;8.426;99.512;2024-01-11T09:27:56;16.98;;;11.45;;
36797;SDS011;22748;8.426;99.512;2024-01-11T09:30:26;15.70;;;11.32;;
36797;SDS011;22748;8.426;99.512;2024-01-11T09:32:55;16.08;;;11.02;;
36797;SDS011;22748;8.426;99.512;2024-01-11T09:35:25;15.15;;;10.60;;
36797;SDS011;22748;8.426;99.512;2024-01-11T09:37:55;13.55;;;11.20;;
36797;SDS011;22748;8.426;99.512;2024-01-11T09:40:24;17.45;;;11.27;;
36797;SDS011;22748;8.426;99.512;2024-01-11T09:43:00;38.97;;;16.98;;
36797;SDS011;22748;8.426;99.512;2024-01-11T09:45:32;45.38;;;18.70;;
36797;SDS011;22748;8.426;99.512;2024-01-11T09:48:02;20.58;;;11.60;;
36797;SDS011;22748;8.426;99.512;2024-01-11T09:50:33;15.30;;;10.68;;
36797;SDS011;22748;8.426;99.512;2024-01-11T09:53:04;17.27;;;11.57;;
36797;SDS011;22748;8.426;99.512;2024-01-11T09:55:35;27.25;;;15.07;;
36797;SDS011;22748;8.426;99.512;2024-01-11T09:58:07;26.38;;;12.98;;
36797;SDS011;22748;8.426;99.512;2024-01-11T10:00:38;27.52;;;13.77;;
36797;SDS011;22748;8.426;99.512;2024-01-11T10:05:38;24.92;;;13.15;;
36797;SDS011;22748;8.426;99.512;2024-01-11T10:08:11;17.15;;;10.48;;
36797;SDS011;22748;8.426;99.512;2024-01-11T10:10:41;66.93;;;24.00;;
36797;SDS011;22748;8.426;99.512;2024-01-11T10:13:17;25.77;;;12.18;;
36797;SDS011;22748;8.426;99.512;2024-01-11T10:15:46;28.52;;;13.10;;
36797;SDS011;22748;8.426;99.512;2024-01-11T10:18:16;22.25;;;10.73;;
36797;SDS011;22748;8.426;99.512;2024-01-11T10:20:49;21.63;;;10.77;;
36797;SDS011;22748;8.426;99.512;2024-01-11T10:23:20;40.60;;;23.35;;
36797;SDS011;22748;8.426;99.512;2024-01-11T10:25:50;20.60;;;16.70;;
36797;SDS011;22748;8.426;99.512;2024-01-11T10:28:31;16.45;;;11.07;;
36797;SDS011;22748;8.426;99.512;2024-01-11T10:31:03;19.48;;;14.55;;
36797;SDS011;22748;8.426;99.512;2024-01-11T10:33:33;18.77;;;12.52;;
36797;SDS011;22748;8.426;99.512;2024-01-11T10:36:03;20.27;;;12.80;;
36797;SDS011;22748;8.426;99.512;2024-01-11T10:38:35;15.02;;;11.07;;
36797;SDS011;22748;8.426;99.512;2024-01-11T10:41:10;16.30;;;11.95;;
36797;SDS011;22748;8.426;99.512;2024-01-11T10:43:43;21.25;;;11.63;;
36797;SDS011;22748;8.426;99.512;2024-01-11T10:46:14;16.23;;;11.75;;
36797;SDS011;22748;8.426;99.512;2024-01-11T10:48:48;18.33;;;11.65;;
36797;SDS011;22748;8.426;99.512;2024-01-11T10:51:24;18.17;;;11.90;;
36797;SDS011;22748;8.426;99.512;2024-01-11T10:53:57;15.63;;;10.82;;
36797;SDS011;22748;8.426;99.512;2024-01-11T10:59:03;16.38;;;10.27;;
36797;SDS011;22748;8.426;99.512;2024-01-11T11:01:33;20.13;;;13.48;;
36797;SDS011;22748;8.426;99.512;2024-01-11T11:04:03;25.40;;;15.50;;
36797;SDS011;22748;8.426;99.512;2024-01-11T11:06:34;19.50;;;12.45;;
36797;SDS011;22748;8.426;99.512;2024-01-11T11:09:05;17.80;;;11.77;;
36797;SDS011;22748;8.426;99.512;2024-01-11T11:11:37;19.50;;;12.07;;
36797;SDS011;22748;8.426;99.512;2024-01-11T11:14:15;18.60;;;13.25;;
36797;SDS011;22748;8.426;99.512;2024-01-11T11:16:45;20.17;;;13.05;;
36797;SDS011;22748;8.426;99.512;2024-01-11T11:19:15;17.80;;;12.93;;
36797;SDS011;22748;8.426;99.512;2024-01-11T11:24:16;18.83;;;12.10;;
36797;SDS011;22748;8.426;99.512;2024-01-11T11:26:48;20.90;;;11.60;;
36797;SDS011;22748;8.426;99.512;2024-01-11T11:29:23;15.70;;;11.45;;
36797;SDS011;22748;8.426;99.512;2024-01-11T11:31:52;23.02;;;13.38;;
36797;SDS011;22748;8.426;99.512;2024-01-11T11:37:10;17.25;;;11.13;;
36797;SDS011;22748;8.426;99.512;2024-01-11T11:39:41;17.23;;;11.38;;
36797;SDS011;22748;8.426;99.512;2024-01-11T11:42:11;18.75;;;11.80;;
36797;SDS011;22748;8.426;99.512;2024-01-11T11:44:49;19.42;;;12.15;;
36797;SDS011;22748;8.426;99.512;2024-01-11T11:47:21;15.40;;;11.45;;
36797;SDS011;22748;8.426;99.512;2024-01-11T11:49:57;17.58;;;12.15;;
36797;SDS011;22748;8.426;99.512;2024-01-11T11:52:37;19.17;;;11.93;;
36797;SDS011;22748;8.426;99.512;2024-01-11T11:55:08;23.85;;;12.38;;
36797;SDS011;22748;8.426;99.512;2024-01-11T11:57:38;16.38;;;10.95;;
36797;SDS011;22748;8.426;99.512;2024-01-11T12:00:14;16.08;;;11.07;;
36797;SDS011;22748;8.426;99.512;2024-01-11T12:02:46;24.30;;;11.80;;
36797;SDS011;22748;8.426;99.512;2024-01-11T12:05:17;20.30;;;12.20;;
36797;SDS011;22748;8.426;99.512;2024-01-11T12:07:46;20.35;;;10.77;;
36797;SDS011;22748;8.426;99.512;2024-01-11T12:10:16;18.70;;;10.60;;
36797;SDS011;22748;8.426;99.512;2024-01-11T12:12:46;23.07;;;11.67;;
36797;SDS011;22748;8.426;99.512;2024-01-11T12:15:22;19.48;;;13.23;;
36797;SDS011;22748;8.426;99.512;2024-01-11T12:17:57;22.98;;;13.57;;
36797;SDS011;22748;8.426;99.512;2024-01-11T12:20:28;26.42;;;13.98;;
36797;SDS011;22748;8.426;99.512;2024-01-11T12:22:58;21.85;;;13.00;;
36797;SDS011;22748;8.426;99.512;2024-01-11T12:25:28;18.63;;;12.88;;
36797;SDS011;22748;8.426;99.512;2024-01-11T12:27:58;23.13;;;14.77;;
36797;SDS011;22748;8.426;99.512;2024-01-11T12:30:34;26.10;;;15.48;;
36797;SDS011;22748;8.426;99.512;2024-01-11T12:33:04;21.35;;;14.30;;
36797;SDS011;22748;8.426;99.512;2024-01-11T12:35:33;26.48;;;15.65;;
36797;SDS011;22748;8.426;99.512;2024-01-11T12:38:04;26.25;;;16.55;;
36797;SDS011;22748;8.426;99.512;2024-01-11T12:40:35;25.95;;;16.02;;
36797;SDS011;22748;8.426;99.512;2024-01-11T12:43:06;26.30;;;15.93;;
36797;SDS011;22748;8.426;99.512;2024-01-11T12:45:42;22.73;;;14.75;;
36797;SDS011;22748;8.426;99.512;2024-01-11T12:48:11;24.70;;;15.52;;
36797;SDS011;22748;8.426;99.512;2024-01-11T12:50:42;22.35;;;15.70;;
36797;SDS011;22748;8.426;99.512;2024-01-11T12:53:12;28.52;;;16.30;;
36797;SDS011;22748;8.426;99.512;2024-01-11T12:55:45;33.67;;;25.20;;
36797;SDS011;22748;8.426;99.512;2024-01-11T12:58:19;47.00;;;31.38;;
36797;SDS011;22748;8.426;99.512;2024-01-11T13:00:51;54.70;;;34.75;;
36797;SDS011;22748;8.426;99.512;2024-01-11T13:03:20;65.30;;;41.05;;
36797;SDS011;22748;8.426;99.512;2024-01-11T13:05:51;72.25;;;44.53;;
36797;SDS011;22748;8.426;99.512;2024-01-11T13:08:20;66.50;;;42.42;;
36797;SDS011;22748;8.426;99.512;2024-01-11T13:10:50;66.78;;;41.30;;
36797;SDS011;22748;8.426;99.512;2024-01-11T13:13:20;58.28;;;36.67;;
36797;SDS011;22748;8.426;99.512;2024-01-11T13:15:52;47.83;;;31.00;;
36797;SDS011;22748;8.426;99.512;2024-01-11T13:18:21;39.10;;;23.17;;
36797;SDS011;22748;8.426;99.512;2024-01-11T13:20:51;29.67;;;21.30;;
36797;SDS011;22748;8.426;99.512;2024-01-11T13:23:20;33.22;;;22.17;;
36797;SDS011;22748;8.426;99.512;2024-01-11T13:25:51;46.97;;;28.52;;
36797;SDS011;22748;8.426;99.512;2024-01-11T13:28:21;52.28;;;31.98;;
36797;SDS011;22748;8.426;99.512;2024-01-11T13:30:56;77.43;;;52.28;;
36797;SDS011;22748;8.426;99.512;2024-01-11T13:33:26;70.65;;;51.50;;
36797;SDS011;22748;8.426;99.512;2024-01-11T13:35:58;45.88;;;33.40;;
36797;SDS011;22748;8.426;99.512;2024-01-11T13:38:37;57.55;;;37.92;;
36797;SDS011;22748;8.426;99.512;2024-01-11T13:41:07;62.72;;;42.92;;
36797;SDS011;22748;8.426;99.512;2024-01-11T13:43:39;75.22;;;47.42;;
36797;SDS011;22748;8.426;99.512;2024-01-11T13:46:15;77.97;;;46.33;;
36797;SDS011;22748;8.426;99.512;2024-01-11T13:48:45;70.97;;;42.78;;
36797;SDS011;22748;8.426;99.512;2024-01-11T13:51:15;78.30;;;54.53;;
36797;SDS011;22748;8.426;99.512;2024-01-11T13:53:45;72.82;;;45.90;;
36797;SDS011;22748;8.426;99.512;2024-01-11T13:56:15;54.42;;;37.83;;
36797;SDS011;22748;8.426;99.512;2024-01-11T13:58:45;48.37;;;33.70;;
36797;SDS011;22748;8.426;99.512;2024-01-11T14:01:16;45.85;;;31.33;;
36797;SDS011;22748;8.426;99.512;2024-01-11T14:03:50;43.25;;;29.15;;
36797;SDS011;22748;8.426;99.512;2024-01-11T14:06:19;40.03;;;26.48;;
36797;SDS011;22748;8.426;99.512;2024-01-11T14:08:52;44.45;;;27.38;;
36797;SDS011;22748;8.426;99.512;2024-01-11T14:11:21;44.08;;;28.20;;
36797;SDS011;22748;8.426;99.512;2024-01-11T14:16:30;41.75;;;26.88;;
36797;SDS011;22748;8.426;99.512;2024-01-11T14:19:00;34.78;;;23.55;;
36797;SDS011;22748;8.426;99.512;2024-01-11T14:21:30;31.42;;;22.05;;
36797;SDS011;22748;8.426;99.512;2024-01-11T14:24:02;30.33;;;21.25;;
36797;SDS011;22748;8.426;99.512;2024-01-11T14:26:33;45.80;;;32.13;;
36797;SDS011;22748;8.426;99.512;2024-01-11T14:29:04;40.20;;;27.63;;
36797;SDS011;22748;8.426;99.512;2024-01-11T14:31:40;46.90;;;28.70;;
36797;SDS011;22748;8.426;99.512;2024-01-11T14:34:11;44.55;;;27.08;;
36797;SDS011;22748;8.426;99.512;2024-01-11T14:36:41;43.45;;;27.40;;
36797;SDS011;22748;8.426;99.512;2024-01-11T14:39:11;45.00;;;25.90;;
36797;SDS011;22748;8.426;99.512;2024-01-11T14:41:41;43.75;;;27.08;;
36797;SDS011;22748;8.426;99.512;2024-01-11T14:44:11;50.80;;;29.23;;
36797;SDS011;22748;8.426;99.512;2024-01-11T14:46:44;44.10;;;29.15;;
36797;SDS011;22748;8.426;99.512;2024-01-11T14:49:14;41.25;;;27.25;;
36797;SDS011;22748;8.426;99.512;2024-01-11T14:51:43;38.90;;;25.90;;
36797;SDS011;22748;8.426;99.512;2024-01-11T14:54:16;43.22;;;28.63;;
36797;SDS011;22748;8.426;99.512;2024-01-11T14:56:47;43.03;;;25.35;;
36797;SDS011;22748;8.426;99.512;2024-01-11T14:59:17;47.92;;;27.13;;
36797;SDS011;22748;8.426;99.512;2024-01-11T15:01:53;43.30;;;26.75;;
36797;SDS011;22748;8.426;99.512;2024-01-11T15:04:23;37.83;;;24.80;;
36797;SDS011;22748;8.426;99.512;2024-01-11T15:06:53;41.85;;;25.02;;
36797;SDS011;22748;8.426;99.512;2024-01-11T15:09:22;31.48;;;22.27;;